sensor_id;sensor_type;location;lat;lon;timestamp;P1;durP1;ratioP1;P2;durP2;ratioP2
16998;SDS011;10211;49.476;11.010;2023-04-25T00:01:15;3.57;;;2.90;;
16998;SDS011;10211;49.476;11.010;2023-04-25T00:03:41;3.03;;;2.70;;
16998;SDS011;10211;49.476;11.010;2023-04-25T00:06:09;3.30;;;3.00;;
16998;SDS011;10211;49.476;11.010;2023-04-25T00:08:36;3.77;;;2.47;;
16998;SDS011;10211;49.476;11.010;2023-04-25T00:11:03;2.87;;;2.50;;
16998;SDS011;10211;49.476;11.010;2023-04-25T00:13:30;2.63;;;2.43;;
16998;SDS011;10211;49.476;11.010;2023-04-25T00:15:57;3.67;;;2.67;;
16998;SDS011;10211;49.476;11.010;2023-04-25T00:18:25;2.80;;;2.20;;
16998;SDS011;10211;49.476;11.010;2023-04-25T00:20:53;4.67;;;2.67;;
16998;SDS011;10211;49.476;11.010;2023-04-25T00:23:22;3.00;;;2.50;;
16998;SDS011;10211;49.476;11.010;2023-04-25T00:25:49;4.40;;;2.47;;
16998;SDS011;10211;49.476;11.010;2023-04-25T00:28:16;2.53;;;2.33;;
16998;SDS011;10211;49.476;11.010;2023-04-25T00:30:43;1.93;;;1.83;;
16998;SDS011;10211;49.476;11.010;2023-04-25T00:33:09;2.57;;;2.33;;
16998;SDS011;10211;49.476;11.010;2023-04-25T00:35:36;2.63;;;2.43;;
16998;SDS011;10211;49.476;11.010;2023-04-25T00:38:04;2.83;;;2.53;;
16998;SDS011;10211;49.476;11.010;2023-04-25T00:40:32;2.40;;;2.20;;
16998;SDS011;10211;49.476;11.010;2023-04-25T00:42:58;2.50;;;2.30;;
16998;SDS011;10211;49.476;11.010;2023-04-25T00:45:27;2.67;;;2.47;;
16998;SDS011;10211;49.476;11.010;2023-04-25T00:47:55;3.27;;;2.30;;
16998;SDS011;10211;49.476;11.010;2023-04-25T00:50:22;2.53;;;2.27;;
16998;SDS011;10211;49.476;11.010;2023-04-25T00:52:49;3.33;;;2.60;;
16998;SDS011;10211;49.476;11.010;2023-04-25T00:55:16;3.73;;;2.70;;
16998;SDS011;10211;49.476;11.010;2023-04-25T00:57:44;2.17;;;2.00;;
16998;SDS011;10211;49.476;11.010;2023-04-25T01:00:12;2.73;;;2.07;;
16998;SDS011;10211;49.476;11.010;2023-04-25T01:02:39;4.97;;;2.23;;
16998;SDS011;10211;49.476;11.010;2023-04-25T01:05:07;2.50;;;2.30;;
16998;SDS011;10211;49.476;11.010;2023-04-25T01:07:34;2.70;;;2.50;;
16998;SDS011;10211;49.476;11.010;2023-04-25T01:10:01;2.57;;;2.10;;
16998;SDS011;10211;49.476;11.010;2023-04-25T01:12:28;2.30;;;2.10;;
16998;SDS011;10211;49.476;11.010;2023-04-25T01:14:57;2.40;;;2.20;;
16998;SDS011;10211;49.476;11.010;2023-04-25T01:17:24;2.40;;;2.20;;
16998;SDS011;10211;49.476;11.010;2023-04-25T01:19:52;2.07;;;1.90;;
16998;SDS011;10211;49.476;11.010;2023-04-25T01:22:20;2.43;;;2.23;;
16998;SDS011;10211;49.476;11.010;2023-04-25T01:24:47;2.30;;;2.10;;
16998;SDS011;10211;49.476;11.010;2023-04-25T01:27:15;2.77;;;2.30;;
16998;SDS011;10211;49.476;11.010;2023-04-25T01:29:42;1.90;;;1.80;;
16998;SDS011;10211;49.476;11.010;2023-04-25T01:32:09;2.90;;;2.07;;
16998;SDS011;10211;49.476;11.010;2023-04-25T01:34:36;2.50;;;2.30;;
16998;SDS011;10211;49.476;11.010;2023-04-25T01:37:03;2.73;;;2.20;;
16998;SDS011;10211;49.476;11.010;2023-04-25T01:39:31;2.40;;;1.87;;
16998;SDS011;10211;49.476;11.010;2023-04-25T01:41:58;2.50;;;2.30;;
16998;SDS011;10211;49.476;11.010;2023-04-25T01:44:25;2.40;;;2.17;;
16998;SDS011;10211;49.476;11.010;2023-04-25T01:46:52;3.13;;;2.63;;
16998;SDS011;10211;49.476;11.010;2023-04-25T01:49:18;2.57;;;2.27;;
16998;SDS011;10211;49.476;11.010;2023-04-25T01:51:45;2.60;;;2.27;;
16998;SDS011;10211;49.476;11.010;2023-04-25T01:54:12;2.47;;;2.27;;
16998;SDS011;10211;49.476;11.010;2023-04-25T01:56:41;2.50;;;2.30;;
16998;SDS011;10211;49.476;11.010;2023-04-25T01:59:07;3.67;;;2.50;;
16998;SDS011;10211;49.476;11.010;2023-04-25T02:01:34;4.37;;;2.37;;
16998;SDS011;10211;49.476;11.010;2023-04-25T02:04:01;2.70;;;2.30;;
16998;SDS011;10211;49.476;11.010;2023-04-25T02:06:27;4.00;;;2.60;;
16998;SDS011;10211;49.476;11.010;2023-04-25T02:08:55;2.23;;;2.00;;
16998;SDS011;10211;49.476;11.010;2023-04-25T02:11:22;4.00;;;2.40;;
16998;SDS011;10211;49.476;11.010;2023-04-25T02:13:50;2.90;;;2.27;;
16998;SDS011;10211;49.476;11.010;2023-04-25T02:16:17;2.53;;;2.33;;
16998;SDS011;10211;49.476;11.010;2023-04-25T02:18:44;2.87;;;2.47;;
16998;SDS011;10211;49.476;11.010;2023-04-25T02:21:11;3.03;;;2.73;;
16998;SDS011;10211;49.476;11.010;2023-04-25T02:23:37;3.57;;;2.40;;
16998;SDS011;10211;49.476;11.010;2023-04-25T02:26:04;2.57;;;2.37;;
16998;SDS011;10211;49.476;11.010;2023-04-25T02:28:31;2.83;;;2.40;;
16998;SDS011;10211;49.476;11.010;2023-04-25T02:30:59;3.43;;;2.60;;
16998;SDS011;10211;49.476;11.010;2023-04-25T02:33:26;2.30;;;2.10;;
16998;SDS011;10211;49.476;11.010;2023-04-25T02:35:53;2.43;;;2.23;;
16998;SDS011;10211;49.476;11.010;2023-04-25T02:38:19;3.30;;;2.90;;
16998;SDS011;10211;49.476;11.010;2023-04-25T02:40:46;5.93;;;2.57;;
16998;SDS011;10211;49.476;11.010;2023-04-25T02:43:13;3.10;;;2.80;;
16998;SDS011;10211;49.476;11.010;2023-04-25T02:45:41;4.27;;;2.73;;
16998;SDS011;10211;49.476;11.010;2023-04-25T02:48:09;3.10;;;2.60;;
16998;SDS011;10211;49.476;11.010;2023-04-25T02:50:35;3.37;;;2.50;;
16998;SDS011;10211;49.476;11.010;2023-04-25T02:53:02;3.20;;;2.90;;
16998;SDS011;10211;49.476;11.010;2023-04-25T02:55:29;4.60;;;3.00;;
16998;SDS011;10211;49.476;11.010;2023-04-25T02:57:55;3.00;;;2.40;;
16998;SDS011;10211;49.476;11.010;2023-04-25T03:00:22;3.23;;;2.93;;
16998;SDS011;10211;49.476;11.010;2023-04-25T03:02:49;3.10;;;2.80;;
16998;SDS011;10211;49.476;11.010;2023-04-25T03:05:18;7.60;;;3.33;;
16998;SDS011;10211;49.476;11.010;2023-04-25T03:07:44;5.93;;;3.47;;
16998;SDS011;10211;49.476;11.010;2023-04-25T03:10:11;5.47;;;3.43;;
16998;SDS011;10211;49.476;11.010;2023-04-25T03:12:38;4.00;;;3.70;;
16998;SDS011;10211;49.476;11.010;2023-04-25T03:15:05;4.47;;;3.77;;
16998;SDS011;10211;49.476;11.010;2023-04-25T03:17:32;4.40;;;4.00;;
16998;SDS011;10211;49.476;11.010;2023-04-25T03:19:59;4.50;;;3.50;;
16998;SDS011;10211;49.476;11.010;2023-04-25T03:22:27;5.27;;;3.73;;
16998;SDS011;10211;49.476;11.010;2023-04-25T03:24:53;5.43;;;3.90;;
16998;SDS011;10211;49.476;11.010;2023-04-25T03:27:20;4.30;;;3.83;;
16998;SDS011;10211;49.476;11.010;2023-04-25T03:29:47;6.97;;;4.17;;
16998;SDS011;10211;49.476;11.010;2023-04-25T03:32:14;4.70;;;3.90;;
16998;SDS011;10211;49.476;11.010;2023-04-25T03:34:40;6.10;;;3.80;;
16998;SDS011;10211;49.476;11.010;2023-04-25T03:37:07;4.77;;;3.97;;
16998;SDS011;10211;49.476;11.010;2023-04-25T03:39:35;5.13;;;3.87;;
16998;SDS011;10211;49.476;11.010;2023-04-25T03:42:02;7.57;;;4.30;;
16998;SDS011;10211;49.476;11.010;2023-04-25T03:44:29;4.73;;;4.23;;
16998;SDS011;10211;49.476;11.010;2023-04-25T03:46:56;5.07;;;4.27;;
16998;SDS011;10211;49.476;11.010;2023-04-25T03:49:22;5.07;;;4.47;;
16998;SDS011;10211;49.476;11.010;2023-04-25T03:51:50;7.43;;;4.97;;
16998;SDS011;10211;49.476;11.010;2023-04-25T03:54:17;5.37;;;4.10;;
16998;SDS011;10211;49.476;11.010;2023-04-25T03:56:45;4.67;;;4.13;;
16998;SDS011;10211;49.476;11.010;2023-04-25T03:59:13;5.23;;;4.33;;
16998;SDS011;10211;49.476;11.010;2023-04-25T04:01:40;6.20;;;5.00;;
16998;SDS011;10211;49.476;11.010;2023-04-25T04:04:06;6.80;;;5.90;;
16998;SDS011;10211;49.476;11.010;2023-04-25T04:06:33;7.43;;;5.17;;
16998;SDS011;10211;49.476;11.010;2023-04-25T04:09:01;6.47;;;5.23;;
16998;SDS011;10211;49.476;11.010;2023-04-25T04:11:28;11.13;;;5.23;;
16998;SDS011;10211;49.476;11.010;2023-04-25T04:13:57;6.27;;;5.07;;
16998;SDS011;10211;49.476;11.010;2023-04-25T04:16:24;4.60;;;4.17;;
16998;SDS011;10211;49.476;11.010;2023-04-25T04:18:51;5.40;;;4.87;;
16998;SDS011;10211;49.476;11.010;2023-04-25T04:21:17;5.00;;;4.50;;
16998;SDS011;10211;49.476;11.010;2023-04-25T04:23:44;5.70;;;4.90;;
16998;SDS011;10211;49.476;11.010;2023-04-25T04:26:11;5.03;;;4.53;;
16998;SDS011;10211;49.476;11.010;2023-04-25T04:28:38;6.10;;;4.67;;
16998;SDS011;10211;49.476;11.010;2023-04-25T04:31:06;4.67;;;3.90;;
16998;SDS011;10211;49.476;11.010;2023-04-25T04:33:34;5.03;;;4.40;;
16998;SDS011;10211;49.476;11.010;2023-04-25T04:36:01;4.77;;;4.27;;
16998;SDS011;10211;49.476;11.010;2023-04-25T04:38:29;6.70;;;4.60;;
16998;SDS011;10211;49.476;11.010;2023-04-25T04:40:56;6.63;;;4.43;;
16998;SDS011;10211;49.476;11.010;2023-04-25T04:43:22;6.07;;;4.40;;
16998;SDS011;10211;49.476;11.010;2023-04-25T04:45:49;6.23;;;5.00;;
16998;SDS011;10211;49.476;11.010;2023-04-25T04:48:17;5.63;;;4.77;;
16998;SDS011;10211;49.476;11.010;2023-04-25T04:50:44;7.13;;;5.53;;
16998;SDS011;10211;49.476;11.010;2023-04-25T04:53:11;6.60;;;5.03;;
16998;SDS011;10211;49.476;11.010;2023-04-25T04:55:37;7.23;;;4.77;;
16998;SDS011;10211;49.476;11.010;2023-04-25T04:58:06;5.60;;;5.00;;
16998;SDS011;10211;49.476;11.010;2023-04-25T05:00:32;7.10;;;5.33;;
16998;SDS011;10211;49.476;11.010;2023-04-25T05:02:59;5.10;;;4.60;;
16998;SDS011;10211;49.476;11.010;2023-04-25T05:05:27;5.60;;;4.90;;
16998;SDS011;10211;49.476;11.010;2023-04-25T05:07:54;6.20;;;4.63;;
16998;SDS011;10211;49.476;11.010;2023-04-25T05:10:21;5.90;;;5.00;;
16998;SDS011;10211;49.476;11.010;2023-04-25T05:12:47;5.13;;;4.63;;
16998;SDS011;10211;49.476;11.010;2023-04-25T05:15:14;6.07;;;4.77;;
16998;SDS011;10211;49.476;11.010;2023-04-25T05:17:41;5.77;;;4.53;;
16998;SDS011;10211;49.476;11.010;2023-04-25T05:20:08;6.87;;;5.20;;
16998;SDS011;10211;49.476;11.010;2023-04-25T05:22:36;6.27;;;4.40;;
16998;SDS011;10211;49.476;11.010;2023-04-25T05:25:03;4.63;;;4.23;;
16998;SDS011;10211;49.476;11.010;2023-04-25T05:27:32;4.57;;;4.13;;
16998;SDS011;10211;49.476;11.010;2023-04-25T05:29:58;6.93;;;4.13;;
16998;SDS011;10211;49.476;11.010;2023-04-25T05:32:25;4.87;;;4.37;;
16998;SDS011;10211;49.476;11.010;2023-04-25T05:34:52;5.17;;;4.33;;
16998;SDS011;10211;49.476;11.010;2023-04-25T05:37:19;4.33;;;3.93;;
16998;SDS011;10211;49.476;11.010;2023-04-25T05:39:47;5.00;;;4.17;;
16998;SDS011;10211;49.476;11.010;2023-04-25T05:42:14;4.60;;;4.17;;
16998;SDS011;10211;49.476;11.010;2023-04-25T05:44:40;4.77;;;4.27;;
16998;SDS011;10211;49.476;11.010;2023-04-25T05:47:07;5.00;;;4.40;;
16998;SDS011;10211;49.476;11.010;2023-04-25T05:49:34;5.40;;;3.97;;
16998;SDS011;10211;49.476;11.010;2023-04-25T05:52:01;4.87;;;4.33;;
16998;SDS011;10211;49.476;11.010;2023-04-25T05:54:27;5.33;;;4.33;;
16998;SDS011;10211;49.476;11.010;2023-04-25T05:56:56;6.80;;;4.80;;
16998;SDS011;10211;49.476;11.010;2023-04-25T05:59:22;4.90;;;4.13;;
16998;SDS011;10211;49.476;11.010;2023-04-25T06:01:49;5.40;;;3.93;;
16998;SDS011;10211;49.476;11.010;2023-04-25T06:04:16;5.43;;;4.33;;
16998;SDS011;10211;49.476;11.010;2023-04-25T06:06:43;4.60;;;4.17;;
16998;SDS011;10211;49.476;11.010;2023-04-25T06:09:10;5.87;;;4.67;;
16998;SDS011;10211;49.476;11.010;2023-04-25T06:11:37;6.43;;;4.63;;
16998;SDS011;10211;49.476;11.010;2023-04-25T06:14:05;4.83;;;4.30;;
16998;SDS011;10211;49.476;11.010;2023-04-25T06:16:32;5.73;;;4.60;;
16998;SDS011;10211;49.476;11.010;2023-04-25T06:18:59;5.37;;;4.23;;
16998;SDS011;10211;49.476;11.010;2023-04-25T06:21:25;6.40;;;4.63;;
16998;SDS011;10211;49.476;11.010;2023-04-25T06:23:52;7.13;;;5.07;;
16998;SDS011;10211;49.476;11.010;2023-04-25T06:26:19;5.50;;;4.87;;
16998;SDS011;10211;49.476;11.010;2023-04-25T06:28:45;6.87;;;5.27;;
16998;SDS011;10211;49.476;11.010;2023-04-25T06:31:13;6.97;;;5.10;;
16998;SDS011;10211;49.476;11.010;2023-04-25T06:33:40;5.93;;;5.00;;
16998;SDS011;10211;49.476;11.010;2023-04-25T06:36:07;7.67;;;5.37;;
16998;SDS011;10211;49.476;11.010;2023-04-25T06:38:33;6.20;;;5.60;;
16998;SDS011;10211;49.476;11.010;2023-04-25T06:41:00;5.80;;;5.20;;
16998;SDS011;10211;49.476;11.010;2023-04-25T06:43:27;6.53;;;5.10;;
16998;SDS011;10211;49.476;11.010;2023-04-25T06:45:57;7.07;;;5.00;;
16998;SDS011;10211;49.476;11.010;2023-04-25T06:48:26;6.43;;;5.33;;
16998;SDS011;10211;49.476;11.010;2023-04-25T06:50:52;6.20;;;4.93;;
16998;SDS011;10211;49.476;11.010;2023-04-25T06:53:19;7.23;;;5.17;;
16998;SDS011;10211;49.476;11.010;2023-04-25T06:55:46;5.27;;;4.77;;
16998;SDS011;10211;49.476;11.010;2023-04-25T06:58:13;9.37;;;5.47;;
16998;SDS011;10211;49.476;11.010;2023-04-25T07:00:40;6.57;;;4.63;;
16998;SDS011;10211;49.476;11.010;2023-04-25T07:03:06;6.87;;;5.27;;
16998;SDS011;10211;49.476;11.010;2023-04-25T07:05:35;5.73;;;4.93;;
16998;SDS011;10211;49.476;11.010;2023-04-25T07:08:01;7.43;;;4.83;;
16998;SDS011;10211;49.476;11.010;2023-04-25T07:10:29;8.13;;;3.93;;
16998;SDS011;10211;49.476;11.010;2023-04-25T07:12:55;5.80;;;3.87;;
16998;SDS011;10211;49.476;11.010;2023-04-25T07:15:22;4.80;;;4.20;;
16998;SDS011;10211;49.476;11.010;2023-04-25T07:17:49;3.83;;;3.50;;
16998;SDS011;10211;49.476;11.010;2023-04-25T07:20:16;5.90;;;3.30;;
16998;SDS011;10211;49.476;11.010;2023-04-25T07:22:44;4.63;;;2.83;;
16998;SDS011;10211;49.476;11.010;2023-04-25T07:25:11;4.70;;;3.30;;
16998;SDS011;10211;49.476;11.010;2023-04-25T07:27:38;3.33;;;3.07;;
16998;SDS011;10211;49.476;11.010;2023-04-25T07:30:05;4.63;;;3.07;;
16998;SDS011;10211;49.476;11.010;2023-04-25T07:32:33;3.87;;;3.07;;
16998;SDS011;10211;49.476;11.010;2023-04-25T07:34:59;3.90;;;3.50;;
16998;SDS011;10211;49.476;11.010;2023-04-25T07:37:26;4.67;;;3.40;;
16998;SDS011;10211;49.476;11.010;2023-04-25T07:39:54;5.03;;;3.30;;
16998;SDS011;10211;49.476;11.010;2023-04-25T07:42:21;3.27;;;2.97;;
16998;SDS011;10211;49.476;11.010;2023-04-25T07:44:48;6.03;;;3.63;;
16998;SDS011;10211;49.476;11.010;2023-04-25T07:47:15;4.13;;;3.60;;
16998;SDS011;10211;49.476;11.010;2023-04-25T07:49:43;3.23;;;2.93;;
16998;SDS011;10211;49.476;11.010;2023-04-25T07:52:10;3.20;;;2.90;;
16998;SDS011;10211;49.476;11.010;2023-04-25T07:54:37;6.37;;;3.13;;
16998;SDS011;10211;49.476;11.010;2023-04-25T07:57:05;2.97;;;2.63;;
16998;SDS011;10211;49.476;11.010;2023-04-25T07:59:32;2.73;;;1.97;;
16998;SDS011;10211;49.476;11.010;2023-04-25T08:01:59;2.47;;;1.67;;
16998;SDS011;10211;49.476;11.010;2023-04-25T08:04:27;4.03;;;1.93;;
16998;SDS011;10211;49.476;11.010;2023-04-25T08:06:54;2.90;;;2.40;;
16998;SDS011;10211;49.476;11.010;2023-04-25T08:09:21;3.77;;;2.33;;
16998;SDS011;10211;49.476;11.010;2023-04-25T08:11:47;2.10;;;1.90;;
16998;SDS011;10211;49.476;11.010;2023-04-25T08:14:16;2.77;;;2.20;;
16998;SDS011;10211;49.476;11.010;2023-04-25T08:16:42;5.87;;;2.90;;
16998;SDS011;10211;49.476;11.010;2023-04-25T08:19:09;3.07;;;2.10;;
16998;SDS011;10211;49.476;11.010;2023-04-25T08:21:37;3.03;;;2.50;;
16998;SDS011;10211;49.476;11.010;2023-04-25T08:24:03;2.57;;;2.37;;
16998;SDS011;10211;49.476;11.010;2023-04-25T08:26:30;3.07;;;2.30;;
16998;SDS011;10211;49.476;11.010;2023-04-25T08:28:57;2.97;;;2.50;;
16998;SDS011;10211;49.476;11.010;2023-04-25T08:31:26;2.30;;;2.10;;
16998;SDS011;10211;49.476;11.010;2023-04-25T08:33:52;3.23;;;1.83;;
16998;SDS011;10211;49.476;11.010;2023-04-25T08:36:19;5.10;;;2.83;;
16998;SDS011;10211;49.476;11.010;2023-04-25T08:38:46;2.90;;;2.30;;
16998;SDS011;10211;49.476;11.010;2023-04-25T08:41:12;3.77;;;2.17;;
16998;SDS011;10211;49.476;11.010;2023-04-25T08:43:40;3.70;;;2.83;;
16998;SDS011;10211;49.476;11.010;2023-04-25T08:46:08;6.30;;;3.03;;
16998;SDS011;10211;49.476;11.010;2023-04-25T08:48:38;4.43;;;2.80;;
16998;SDS011;10211;49.476;11.010;2023-04-25T08:51:08;4.70;;;3.10;;
16998;SDS011;10211;49.476;11.010;2023-04-25T08:53:37;3.43;;;2.70;;
16998;SDS011;10211;49.476;11.010;2023-04-25T08:56:07;3.73;;;2.70;;
16998;SDS011;10211;49.476;11.010;2023-04-25T08:58:38;3.50;;;3.00;;
16998;SDS011;10211;49.476;11.010;2023-04-25T09:01:05;6.37;;;3.47;;
16998;SDS011;10211;49.476;11.010;2023-04-25T09:03:31;3.53;;;3.10;;
16998;SDS011;10211;49.476;11.010;2023-04-25T09:06:00;4.63;;;3.97;;
16998;SDS011;10211;49.476;11.010;2023-04-25T09:08:27;4.10;;;3.70;;
16998;SDS011;10211;49.476;11.010;2023-04-25T09:10:54;5.93;;;4.20;;
16998;SDS011;10211;49.476;11.010;2023-04-25T09:13:24;7.83;;;4.00;;
16998;SDS011;10211;49.476;11.010;2023-04-25T09:15:53;5.00;;;4.00;;
16998;SDS011;10211;49.476;11.010;2023-04-25T09:18:23;5.73;;;3.87;;
16998;SDS011;10211;49.476;11.010;2023-04-25T09:20:51;4.37;;;3.97;;
16998;SDS011;10211;49.476;11.010;2023-04-25T09:23:21;4.70;;;3.50;;
16998;SDS011;10211;49.476;11.010;2023-04-25T09:25:48;4.23;;;3.40;;
16998;SDS011;10211;49.476;11.010;2023-04-25T09:28:16;3.13;;;2.83;;
16998;SDS011;10211;49.476;11.010;2023-04-25T09:30:48;3.83;;;3.20;;
16998;SDS011;10211;49.476;11.010;2023-04-25T09:33:15;3.70;;;3.00;;
16998;SDS011;10211;49.476;11.010;2023-04-25T09:35:42;3.63;;;3.30;;
16998;SDS011;10211;49.476;11.010;2023-04-25T09:38:10;3.27;;;2.77;;
16998;SDS011;10211;49.476;11.010;2023-04-25T09:40:40;3.83;;;3.10;;
16998;SDS011;10211;49.476;11.010;2023-04-25T09:43:12;3.23;;;2.53;;
16998;SDS011;10211;49.476;11.010;2023-04-25T09:45:45;3.90;;;3.50;;
16998;SDS011;10211;49.476;11.010;2023-04-25T09:48:13;2.70;;;2.50;;
16998;SDS011;10211;49.476;11.010;2023-04-25T09:50:44;2.67;;;2.17;;
16998;SDS011;10211;49.476;11.010;2023-04-25T09:53:11;2.00;;;1.87;;
16998;SDS011;10211;49.476;11.010;2023-04-25T09:55:38;2.63;;;2.43;;
16998;SDS011;10211;49.476;11.010;2023-04-25T09:58:08;2.83;;;2.47;;
16998;SDS011;10211;49.476;11.010;2023-04-25T10:00:37;2.60;;;2.40;;
16998;SDS011;10211;49.476;11.010;2023-04-25T10:03:04;2.67;;;2.47;;
16998;SDS011;10211;49.476;11.010;2023-04-25T10:05:32;3.20;;;2.77;;
16998;SDS011;10211;49.476;11.010;2023-04-25T10:08:02;2.90;;;2.63;;
16998;SDS011;10211;49.476;11.010;2023-04-25T10:10:30;2.53;;;2.13;;
16998;SDS011;10211;49.476;11.010;2023-04-25T10:13:03;2.75;;;2.33;;
16998;SDS011;10211;49.476;11.010;2023-04-25T10:15:31;2.95;;;2.22;;
16998;SDS011;10211;49.476;11.010;2023-04-25T10:18:01;2.85;;;1.95;;
16998;SDS011;10211;49.476;11.010;2023-04-25T10:20:28;1.95;;;1.70;;
16998;SDS011;10211;49.476;11.010;2023-04-25T10:22:57;2.35;;;1.88;;
16998;SDS011;10211;49.476;11.010;2023-04-25T10:25:29;2.30;;;1.63;;
16998;SDS011;10211;49.476;11.010;2023-04-25T10:27:57;2.13;;;1.60;;
16998;SDS011;10211;49.476;11.010;2023-04-25T10:30:27;3.63;;;1.55;;
16998;SDS011;10211;49.476;11.010;2023-04-25T10:32:54;2.03;;;1.70;;
16998;SDS011;10211;49.476;11.010;2023-04-25T10:35:24;2.00;;;1.80;;
16998;SDS011;10211;49.476;11.010;2023-04-25T10:37:59;2.83;;;1.97;;
16998;SDS011;10211;49.476;11.010;2023-04-25T10:40:26;2.27;;;1.80;;
16998;SDS011;10211;49.476;11.010;2023-04-25T10:42:53;2.03;;;1.60;;
16998;SDS011;10211;49.476;11.010;2023-04-25T10:45:21;1.60;;;1.47;;
16998;SDS011;10211;49.476;11.010;2023-04-25T10:47:49;0.93;;;0.80;;
16998;SDS011;10211;49.476;11.010;2023-04-25T10:50:16;1.55;;;1.00;;
16998;SDS011;10211;49.476;11.010;2023-04-25T10:52:43;1.23;;;0.88;;
16998;SDS011;10211;49.476;11.010;2023-04-25T10:55:11;2.40;;;1.10;;
16998;SDS011;10211;49.476;11.010;2023-04-25T10:57:38;0.77;;;0.77;;
16998;SDS011;10211;49.476;11.010;2023-04-25T11:00:10;1.77;;;0.90;;
16998;SDS011;10211;49.476;11.010;2023-04-25T11:02:41;0.70;;;0.70;;
16998;SDS011;10211;49.476;11.010;2023-04-25T11:05:11;1.60;;;1.00;;
16998;SDS011;10211;49.476;11.010;2023-04-25T11:07:49;1.60;;;1.20;;
16998;SDS011;10211;49.476;11.010;2023-04-25T11:10:17;1.27;;;0.88;;
16998;SDS011;10211;49.476;11.010;2023-04-25T11:12:44;1.60;;;1.13;;
16998;SDS011;10211;49.476;11.010;2023-04-25T11:15:12;2.15;;;1.15;;
16998;SDS011;10211;49.476;11.010;2023-04-25T11:17:39;1.95;;;1.50;;
16998;SDS011;10211;49.476;11.010;2023-04-25T11:20:06;1.73;;;1.30;;
16998;SDS011;10211;49.476;11.010;2023-04-25T11:22:38;1.40;;;1.10;;
16998;SDS011;10211;49.476;11.010;2023-04-25T11:25:07;3.43;;;1.00;;
16998;SDS011;10211;49.476;11.010;2023-04-25T11:27:36;1.10;;;0.90;;
16998;SDS011;10211;49.476;11.010;2023-04-25T11:30:12;1.60;;;0.93;;
16998;SDS011;10211;49.476;11.010;2023-04-25T11:32:40;1.40;;;1.10;;
16998;SDS011;10211;49.476;11.010;2023-04-25T11:35:07;1.63;;;0.90;;
16998;SDS011;10211;49.476;11.010;2023-04-25T11:37:35;1.50;;;1.13;;
16998;SDS011;10211;49.476;11.010;2023-04-25T11:40:03;1.57;;;1.13;;
16998;SDS011;10211;49.476;11.010;2023-04-25T11:42:32;2.67;;;1.07;;
16998;SDS011;10211;49.476;11.010;2023-04-25T11:44:59;1.63;;;1.00;;
16998;SDS011;10211;49.476;11.010;2023-04-25T11:47:29;1.17;;;0.80;;
16998;SDS011;10211;49.476;11.010;2023-04-25T11:49:57;1.10;;;1.00;;
16998;SDS011;10211;49.476;11.010;2023-04-25T11:52:34;1.23;;;0.70;;
16998;SDS011;10211;49.476;11.010;2023-04-25T11:55:07;0.70;;;0.70;;
16998;SDS011;10211;49.476;11.010;2023-04-25T11:57:35;0.90;;;0.70;;
16998;SDS011;10211;49.476;11.010;2023-04-25T12:00:10;1.48;;;0.90;;
16998;SDS011;10211;49.476;11.010;2023-04-25T12:02:41;1.00;;;0.90;;
16998;SDS011;10211;49.476;11.010;2023-04-25T12:05:09;1.38;;;1.27;;
16998;SDS011;10211;49.476;11.010;2023-04-25T12:07:37;1.05;;;0.70;;
16998;SDS011;10211;49.476;11.010;2023-04-25T12:10:04;0.80;;;0.75;;
16998;SDS011;10211;49.476;11.010;2023-04-25T12:12:34;1.30;;;0.73;;
16998;SDS011;10211;49.476;11.010;2023-04-25T12:15:08;0.93;;;0.90;;
16998;SDS011;10211;49.476;11.010;2023-04-25T12:17:36;1.40;;;0.93;;
16998;SDS011;10211;49.476;11.010;2023-04-25T12:20:05;2.03;;;0.83;;
16998;SDS011;10211;49.476;11.010;2023-04-25T12:22:34;1.40;;;1.27;;
16998;SDS011;10211;49.476;11.010;2023-04-25T12:25:01;2.17;;;1.43;;
16998;SDS011;10211;49.476;11.010;2023-04-25T12:27:30;2.80;;;1.40;;
16998;SDS011;10211;49.476;11.010;2023-04-25T12:29:58;0.90;;;0.90;;
16998;SDS011;10211;49.476;11.010;2023-04-25T12:32:26;2.80;;;1.10;;
16998;SDS011;10211;49.476;11.010;2023-04-25T12:34:53;1.07;;;1.00;;
16998;SDS011;10211;49.476;11.010;2023-04-25T12:37:20;2.07;;;0.90;;
16998;SDS011;10211;49.476;11.010;2023-04-25T12:39:46;2.07;;;1.50;;
16998;SDS011;10211;49.476;11.010;2023-04-25T12:42:13;1.57;;;1.40;;
16998;SDS011;10211;49.476;11.010;2023-04-25T12:44:40;2.13;;;1.67;;
16998;SDS011;10211;49.476;11.010;2023-04-25T12:47:08;1.70;;;1.60;;
16998;SDS011;10211;49.476;11.010;2023-04-25T12:49:35;1.40;;;1.30;;
16998;SDS011;10211;49.476;11.010;2023-04-25T12:52:01;1.30;;;1.20;;
16998;SDS011;10211;49.476;11.010;2023-04-25T12:54:28;1.40;;;1.30;;
16998;SDS011;10211;49.476;11.010;2023-04-25T12:56:56;2.57;;;1.60;;
16998;SDS011;10211;49.476;11.010;2023-04-25T12:59:23;2.40;;;1.40;;
16998;SDS011;10211;49.476;11.010;2023-04-25T13:01:49;1.63;;;1.30;;
16998;SDS011;10211;49.476;11.010;2023-04-25T13:04:17;1.80;;;1.33;;
16998;SDS011;10211;49.476;11.010;2023-04-25T13:06:45;1.80;;;1.30;;
16998;SDS011;10211;49.476;11.010;2023-04-25T13:09:12;2.60;;;1.50;;
16998;SDS011;10211;49.476;11.010;2023-04-25T13:11:40;1.37;;;1.27;;
16998;SDS011;10211;49.476;11.010;2023-04-25T13:14:07;1.90;;;1.50;;
16998;SDS011;10211;49.476;11.010;2023-04-25T13:16:33;2.27;;;1.73;;
16998;SDS011;10211;49.476;11.010;2023-04-25T13:19:00;1.40;;;1.30;;
16998;SDS011;10211;49.476;11.010;2023-04-25T13:21:29;3.47;;;1.60;;
16998;SDS011;10211;49.476;11.010;2023-04-25T13:23:56;2.57;;;1.33;;
16998;SDS011;10211;49.476;11.010;2023-04-25T13:26:23;1.87;;;1.43;;
16998;SDS011;10211;49.476;11.010;2023-04-25T13:28:50;2.17;;;1.60;;
16998;SDS011;10211;49.476;11.010;2023-04-25T13:31:17;4.07;;;1.63;;
16998;SDS011;10211;49.476;11.010;2023-04-25T13:33:44;1.73;;;1.60;;
16998;SDS011;10211;49.476;11.010;2023-04-25T13:36:10;1.67;;;1.57;;
16998;SDS011;10211;49.476;11.010;2023-04-25T13:38:39;2.00;;;1.80;;
16998;SDS011;10211;49.476;11.010;2023-04-25T13:41:08;1.40;;;1.30;;
16998;SDS011;10211;49.476;11.010;2023-04-25T13:43:36;2.93;;;1.60;;
16998;SDS011;10211;49.476;11.010;2023-04-25T13:46:02;3.67;;;2.10;;
16998;SDS011;10211;49.476;11.010;2023-04-25T13:48:29;6.33;;;1.80;;
16998;SDS011;10211;49.476;11.010;2023-04-25T13:50:56;2.80;;;1.90;;
16998;SDS011;10211;49.476;11.010;2023-04-25T13:53:23;1.93;;;1.50;;
16998;SDS011;10211;49.476;11.010;2023-04-25T13:55:51;1.80;;;1.57;;
16998;SDS011;10211;49.476;11.010;2023-04-25T13:58:18;2.23;;;1.73;;
16998;SDS011;10211;49.476;11.010;2023-04-25T14:00:45;2.93;;;2.00;;
16998;SDS011;10211;49.476;11.010;2023-04-25T14:03:12;2.40;;;2.10;;
16998;SDS011;10211;49.476;11.010;2023-04-25T14:05:39;3.17;;;2.33;;
16998;SDS011;10211;49.476;11.010;2023-04-25T14:08:06;3.27;;;2.20;;
16998;SDS011;10211;49.476;11.010;2023-04-25T14:10:33;2.37;;;2.10;;
16998;SDS011;10211;49.476;11.010;2023-04-25T14:13:02;4.63;;;2.43;;
16998;SDS011;10211;49.476;11.010;2023-04-25T14:15:30;2.70;;;2.13;;
16998;SDS011;10211;49.476;11.010;2023-04-25T14:17:57;2.57;;;2.37;;
16998;SDS011;10211;49.476;11.010;2023-04-25T14:20:24;5.13;;;3.67;;
16998;SDS011;10211;49.476;11.010;2023-04-25T14:22:51;9.27;;;5.43;;
16998;SDS011;10211;49.476;11.010;2023-04-25T14:25:19;6.90;;;5.07;;
16998;SDS011;10211;49.476;11.010;2023-04-25T14:27:46;4.23;;;3.10;;
16998;SDS011;10211;49.476;11.010;2023-04-25T14:30:16;2.57;;;2.30;;
16998;SDS011;10211;49.476;11.010;2023-04-25T14:32:43;3.20;;;2.23;;
16998;SDS011;10211;49.476;11.010;2023-04-25T14:35:10;4.50;;;2.30;;